createdAt,value
2018-07-31T00:00:16.374Z,79.90
2018-07-31T00:02:44.440Z,80.00
2018-07-31T00:05:12.512Z,80.10
2018-07-31T00:07:40.590Z,80.20
2018-07-31T00:10:09.271Z,80.40
2018-07-31T00:12:37.343Z,80.50
2018-07-31T00:15:08.082Z,80.50
2018-07-31T00:17:36.191Z,80.40
2018-07-31T00:20:04.455Z,81.20
2018-07-31T00:22:32.845Z,80.40
2018-07-31T00:25:00.926Z,80.60
2018-07-31T00:27:29.002Z,80.40
2018-07-31T00:29:57.086Z,81.10
2018-07-31T00:34:53.046Z,80.80
2018-07-31T00:37:21.150Z,80.80
2018-07-31T00:39:49.218Z,80.90
2018-07-31T00:42:17.286Z,81.10
2018-07-31T00:44:45.425Z,81.50
2018-07-31T00:47:13.474Z,81.60
2018-07-31T00:49:41.547Z,81.90
2018-07-31T00:52:09.602Z,81.90
2018-07-31T00:54:37.690Z,82.50
2018-07-31T00:57:05.767Z,82.20
2018-07-31T00:59:34.106Z,82.20
2018-07-31T01:02:02.214Z,82.00
2018-07-31T01:04:30.286Z,81.90
2018-07-31T01:06:58.415Z,81.80
2018-07-31T01:09:26.472Z,81.90
2018-07-31T01:11:54.577Z,82.00
2018-07-31T01:14:22.666Z,82.10
2018-07-31T01:16:50.738Z,82.10
2018-07-31T01:19:18.814Z,82.10
2018-07-31T01:21:46.880Z,82.30
2018-07-31T01:24:15.226Z,82.40
2018-07-31T01:26:43.305Z,83.00
2018-07-31T01:29:11.382Z,82.90
2018-07-31T01:31:39.465Z,83.00
2018-07-31T01:34:07.554Z,83.00
2018-07-31T01:36:35.626Z,83.00
2018-07-31T01:39:05.499Z,83.00
2018-07-31T01:41:33.572Z,83.00
2018-07-31T01:44:01.676Z,82.90
2018-07-31T01:46:29.738Z,83.10
2018-07-31T01:48:57.814Z,83.30
2018-07-31T01:51:25.883Z,83.50
2018-07-31T01:53:53.957Z,84.00
2018-07-31T01:56:22.048Z,84.00
2018-07-31T01:58:50.110Z,84.60
2018-07-31T02:01:18.178Z,84.50
2018-07-31T02:03:46.255Z,84.60
2018-07-31T02:06:14.342Z,84.60
2018-07-31T02:08:42.410Z,84.50
2018-07-31T02:13:38.331Z,83.90
2018-07-31T02:16:06.414Z,84.20
2018-07-31T02:18:34.489Z,84.30
2018-07-31T02:21:02.626Z,84.40
2018-07-31T02:23:30.693Z,84.60
2018-07-31T02:25:59.092Z,84.60
2018-07-31T02:28:27.248Z,85.70
2018-07-31T02:30:55.427Z,85.70
2018-07-31T02:33:23.508Z,85.70
2018-07-31T02:35:51.663Z,85.50
2018-07-31T02:38:19.734Z,85.60
2018-07-31T02:40:47.804Z,85.60
2018-07-31T02:43:15.886Z,85.70
2018-07-31T02:45:43.947Z,86.30
2018-07-31T02:48:12.019Z,85.60
2018-07-31T02:50:40.098Z,85.40
2018-07-31T02:53:08.170Z,85.40
2018-07-31T02:55:36.233Z,85.50
2018-07-31T02:58:04.390Z,86.30
2018-07-31T03:00:32.415Z,86.20
2018-07-31T03:03:00.870Z,86.00
2018-07-31T03:05:28.940Z,86.60
2018-07-31T03:07:57.020Z,86.40
2018-07-31T03:10:25.077Z,86.20
2018-07-31T03:12:53.150Z,86.10
2018-07-31T03:15:21.547Z,86.20
2018-07-31T03:17:49.612Z,86.20
2018-07-31T03:20:17.739Z,86.20
2018-07-31T03:22:45.841Z,86.20
2018-07-31T03:25:13.938Z,86.40
2018-07-31T03:27:42.081Z,86.50
2018-07-31T03:30:10.170Z,86.70
2018-07-31T03:32:38.238Z,86.90
2018-07-31T03:35:06.814Z,87.90
2018-07-31T03:37:34.899Z,87.80
2018-07-31T03:40:03.034Z,88.30
2018-07-31T03:42:31.106Z,88.00
2018-07-31T03:44:59.199Z,87.80
2018-07-31T03:47:27.282Z,87.80
2018-07-31T03:49:55.410Z,87.80
2018-07-31T03:52:23.842Z,88.00
2018-07-31T03:54:52.061Z,87.90
2018-07-31T03:57:20.142Z,87.90
2018-07-31T03:59:48.290Z,88.10
2018-07-31T04:02:16.354Z,87.80
2018-07-31T04:04:44.463Z,88.00
2018-07-31T04:07:12.498Z,88.10
2018-07-31T04:09:40.565Z,89.10
2018-07-31T04:12:08.638Z,89.00
2018-07-31T04:14:36.731Z,89.50
2018-07-31T04:17:04.822Z,89.30
2018-07-31T04:19:32.862Z,89.00
2018-07-31T04:22:00.979Z,88.90
2018-07-31T04:24:29.050Z,88.80
2018-07-31T04:26:57.155Z,88.60
2018-07-31T04:29:25.227Z,88.50
2018-07-31T04:31:53.367Z,88.30
2018-07-31T04:34:21.481Z,88.30
2018-07-31T04:36:49.542Z,88.30
2018-07-31T04:39:17.618Z,88.30
2018-07-31T04:41:45.701Z,88.30
2018-07-31T04:44:13.758Z,88.60
2018-07-31T04:46:41.825Z,88.60
2018-07-31T04:49:09.914Z,89.40
2018-07-31T04:51:37.987Z,89.20
2018-07-31T04:54:06.158Z,89.20
2018-07-31T04:56:34.242Z,89.30
2018-07-31T04:59:02.387Z,90.00
2018-07-31T05:01:30.442Z,90.20
2018-07-31T05:03:58.530Z,90.40
2018-07-31T05:06:26.610Z,90.70
2018-07-31T05:08:54.722Z,90.90
2018-07-31T05:11:22.820Z,91.20
2018-07-31T05:13:50.924Z,91.30
2018-07-31T05:16:19.353Z,91.60
2018-07-31T05:18:47.420Z,91.80
2018-07-31T05:21:15.506Z,91.80
2018-07-31T05:23:43.599Z,91.90
2018-07-31T05:26:11.670Z,91.90
2018-07-31T05:28:39.787Z,91.90
2018-07-31T05:31:07.892Z,92.00
2018-07-31T05:33:35.982Z,92.20
2018-07-31T05:36:04.084Z,92.50
2018-07-31T05:38:32.153Z,92.80
2018-07-31T05:41:00.206Z,93.10
2018-07-31T05:43:28.310Z,93.20
2018-07-31T05:45:56.399Z,93.40
2018-07-31T05:48:24.482Z,93.70
2018-07-31T05:50:52.545Z,93.30
2018-07-31T05:53:21.003Z,93.30
2018-07-31T05:55:49.108Z,93.20
2018-07-31T05:58:17.188Z,93.10
2018-07-31T06:00:45.234Z,93.40
2018-07-31T06:03:13.335Z,93.30
2018-07-31T06:05:42.074Z,93.30
2018-07-31T06:08:10.348Z,93.30
2018-07-31T06:10:38.419Z,93.30
2018-07-31T06:13:06.489Z,93.30
2018-07-31T06:15:34.571Z,93.30
2018-07-31T06:18:02.955Z,93.30
2018-07-31T06:20:31.067Z,93.20
2018-07-31T06:22:59.158Z,93.20
2018-07-31T06:25:27.272Z,93.70
2018-07-31T06:27:55.333Z,93.60
2018-07-31T06:30:23.709Z,93.70
2018-07-31T06:32:51.802Z,93.70
2018-07-31T06:35:19.885Z,93.50
2018-07-31T06:37:48.051Z,93.00
2018-07-31T06:40:16.206Z,92.70
2018-07-31T06:42:44.635Z,92.70
2018-07-31T06:45:12.709Z,92.30
2018-07-31T06:47:40.790Z,92.10
2018-07-31T06:50:08.900Z,91.60
2018-07-31T06:52:36.982Z,91.30
2018-07-31T06:55:05.674Z,91.10
2018-07-31T06:57:34.763Z,90.90
2018-07-31T07:00:02.932Z,90.80
2018-07-31T07:02:31.011Z,90.50
2018-07-31T07:04:59.104Z,90.30
2018-07-31T07:07:27.462Z,90.10
2018-07-31T07:09:55.534Z,89.80
2018-07-31T07:12:23.610Z,89.30
2018-07-31T07:14:51.714Z,88.00
2018-07-31T07:17:19.855Z,87.60
2018-07-31T07:19:48.234Z,87.30
2018-07-31T07:22:16.538Z,87.20
2018-07-31T07:24:44.635Z,87.20
2018-07-31T07:27:12.710Z,87.20
2018-07-31T07:29:40.858Z,86.90
2018-07-31T07:32:09.207Z,86.70
2018-07-31T07:34:37.302Z,86.20
2018-07-31T07:37:05.472Z,86.00
2018-07-31T07:39:33.542Z,86.10
2018-07-31T07:42:01.662Z,86.00
2018-07-31T07:44:30.072Z,85.60
2018-07-31T07:46:58.165Z,85.00
2018-07-31T07:49:26.258Z,84.80
2018-07-31T07:51:54.388Z,84.20
2018-07-31T07:54:22.549Z,84.30
2018-07-31T07:56:51.180Z,84.40
2018-07-31T07:59:19.285Z,84.20
2018-07-31T08:01:47.354Z,84.00
2018-07-31T08:04:15.443Z,84.10
2018-07-31T08:06:43.510Z,83.80
2018-07-31T08:09:11.831Z,83.30
2018-07-31T08:11:39.914Z,82.90
2018-07-31T08:14:08.100Z,82.60
2018-07-31T08:16:36.169Z,82.20
2018-07-31T08:19:04.295Z,82.10
2018-07-31T08:21:32.707Z,82.00
2018-07-31T08:24:00.863Z,81.30
2018-07-31T08:26:28.970Z,80.90
2018-07-31T08:28:57.111Z,80.80
2018-07-31T08:31:25.270Z,81.40
2018-07-31T08:33:53.364Z,80.60
2018-07-31T08:36:21.561Z,80.50
2018-07-31T08:38:49.876Z,80.30
2018-07-31T08:41:17.989Z,79.80
2018-07-31T08:43:46.037Z,79.50
2018-07-31T08:46:14.134Z,79.50
2018-07-31T08:48:42.327Z,79.70
2018-07-31T08:51:10.435Z,79.50
2018-07-31T08:53:38.527Z,78.90
2018-07-31T08:56:06.717Z,78.30
2018-07-31T08:58:35.203Z,78.00
2018-07-31T09:01:03.279Z,77.00
2018-07-31T09:03:31.375Z,76.40
2018-07-31T09:05:59.443Z,75.80
2018-07-31T09:08:27.665Z,75.50
2018-07-31T09:10:55.853Z,75.10
2018-07-31T09:13:23.965Z,74.10
2018-07-31T09:15:52.040Z,73.40
2018-07-31T09:18:20.130Z,71.70
2018-07-31T09:20:48.239Z,71.00
2018-07-31T09:23:16.634Z,70.30
2018-07-31T09:25:44.810Z,69.60
2018-07-31T09:28:13.610Z,69.20
2018-07-31T09:30:47.321Z,69.10
2018-07-31T09:33:15.373Z,68.90
2018-07-31T09:35:43.753Z,68.90
2018-07-31T09:38:11.969Z,68.30
2018-07-31T09:40:40.058Z,68.50
2018-07-31T09:43:08.231Z,68.10
2018-07-31T09:48:04.630Z,67.00
2018-07-31T09:50:32.749Z,66.50
2018-07-31T09:53:00.842Z,65.10
2018-07-31T09:55:28.949Z,65.00
2018-07-31T09:57:57.031Z,65.00
2018-07-31T10:00:30.770Z,65.10
2018-07-31T10:03:00.085Z,64.70
2018-07-31T10:05:28.174Z,64.20
2018-07-31T10:07:56.239Z,63.70
2018-07-31T10:10:24.323Z,63.30
2018-07-31T10:12:52.434Z,62.20
2018-07-31T10:15:20.589Z,62.40
2018-07-31T10:17:48.693Z,61.80
2018-07-31T10:20:16.862Z,61.90
2018-07-31T10:22:45.003Z,62.20
2018-07-31T10:25:13.126Z,62.30
2018-07-31T10:27:41.214Z,62.30
2018-07-31T10:30:09.286Z,62.70
2018-07-31T10:32:37.383Z,64.00
2018-07-31T10:35:05.487Z,64.50
2018-07-31T10:37:33.595Z,64.60
2018-07-31T10:40:01.652Z,64.10
2018-07-31T10:42:29.710Z,63.60
2018-07-31T10:44:57.779Z,62.00
2018-07-31T10:47:26.251Z,60.80
2018-07-31T10:49:54.334Z,58.60
2018-07-31T10:52:22.402Z,57.90
2018-07-31T10:54:50.777Z,57.40
2018-07-31T10:57:18.866Z,57.20
2018-07-31T10:59:46.948Z,56.90
2018-07-31T11:02:15.023Z,56.00
2018-07-31T11:04:43.115Z,55.70
2018-07-31T11:07:11.185Z,56.20
2018-07-31T11:09:39.278Z,56.50
2018-07-31T11:12:07.489Z,56.70
2018-07-31T11:14:35.647Z,56.30
2018-07-31T11:17:03.826Z,55.70
2018-07-31T11:19:32.141Z,55.50
2018-07-31T11:22:00.240Z,55.90
2018-07-31T11:24:28.413Z,57.10
2018-07-31T11:26:57.106Z,57.40
2018-07-31T11:29:25.219Z,57.50
2018-07-31T11:31:53.294Z,57.80
2018-07-31T11:34:21.463Z,58.00
2018-07-31T11:36:49.570Z,57.80
2018-07-31T11:39:17.963Z,57.90
2018-07-31T11:41:46.051Z,56.80
2018-07-31T11:44:14.142Z,56.50
2018-07-31T11:46:42.218Z,55.80
2018-07-31T11:51:38.431Z,54.50
2018-07-31T11:54:06.511Z,55.10
2018-07-31T11:56:34.808Z,55.70
2018-07-31T11:59:03.022Z,55.30
2018-07-31T12:01:31.215Z,54.80
2018-07-31T12:03:59.630Z,54.30
2018-07-31T12:06:27.710Z,53.50
2018-07-31T12:08:55.782Z,53.50
2018-07-31T12:11:23.861Z,53.00
2018-07-31T12:13:52.011Z,52.80
2018-07-31T12:16:20.161Z,52.60
2018-07-31T12:18:48.242Z,52.90
2018-07-31T12:21:16.328Z,52.70
2018-07-31T12:23:44.411Z,52.70
2018-07-31T12:26:12.502Z,52.70
2018-07-31T12:28:40.574Z,52.20
2018-07-31T12:31:08.666Z,52.00
2018-07-31T12:33:36.770Z,51.80
2018-07-31T12:36:05.111Z,51.20
2018-07-31T12:38:33.206Z,51.20
2018-07-31T12:41:01.295Z,51.20
2018-07-31T12:43:30.298Z,51.40
2018-07-31T12:45:58.458Z,51.10
2018-07-31T12:48:26.558Z,50.80
2018-07-31T12:50:54.742Z,51.40
2018-07-31T12:53:22.844Z,51.20
2018-07-31T12:55:50.948Z,50.60
2018-07-31T12:58:19.030Z,49.70
2018-07-31T13:00:47.131Z,49.30
2018-07-31T13:03:15.245Z,49.60
2018-07-31T13:05:43.656Z,49.80
2018-07-31T13:08:12.359Z,49.50
2018-07-31T13:10:40.414Z,49.40
2018-07-31T13:13:08.595Z,49.40
2018-07-31T13:15:36.755Z,49.00
2018-07-31T13:18:04.826Z,49.80
2018-07-31T13:20:32.907Z,48.50
2018-07-31T13:23:01.042Z,48.80
2018-07-31T13:25:29.182Z,48.50
2018-07-31T13:27:57.319Z,48.40
2018-07-31T13:30:25.398Z,47.70
2018-07-31T13:32:53.462Z,46.80
2018-07-31T13:35:21.559Z,46.10
2018-07-31T13:37:49.702Z,45.80
2018-07-31T13:40:17.809Z,44.70
2018-07-31T13:42:46.185Z,45.10
2018-07-31T13:45:14.270Z,45.00
2018-07-31T13:47:42.372Z,44.60
2018-07-31T13:50:16.186Z,44.80
2018-07-31T13:52:44.274Z,45.50
2018-07-31T13:55:12.734Z,44.90
2018-07-31T13:57:40.958Z,45.60
2018-07-31T14:00:09.031Z,45.70
2018-07-31T14:02:37.152Z,46.20
2018-07-31T14:05:05.237Z,46.10
2018-07-31T14:07:33.319Z,46.10
2018-07-31T14:10:01.419Z,46.00
2018-07-31T14:12:29.511Z,46.00
2018-07-31T14:14:57.638Z,45.10
2018-07-31T14:17:25.790Z,44.80
2018-07-31T14:19:53.907Z,44.60
2018-07-31T14:22:22.039Z,43.90
2018-07-31T14:24:50.125Z,43.50
2018-07-31T14:27:18.231Z,43.40
2018-07-31T14:29:46.354Z,43.10
2018-07-31T14:34:42.696Z,43.10
2018-07-31T14:39:38.703Z,43.80
2018-07-31T14:42:07.035Z,43.30
2018-07-31T14:44:35.113Z,42.30
2018-07-31T14:47:03.194Z,42.40
2018-07-31T14:49:31.283Z,42.40
2018-07-31T14:51:59.359Z,42.20
2018-07-31T14:54:27.510Z,41.70
2018-07-31T14:56:55.623Z,41.10
2018-07-31T14:59:23.750Z,40.60
2018-07-31T15:01:51.846Z,40.30
2018-07-31T15:04:19.919Z,40.10
2018-07-31T15:06:48.050Z,39.80
2018-07-31T15:09:16.136Z,39.30
2018-07-31T15:11:44.251Z,38.90
2018-07-31T15:14:12.401Z,38.20
2018-07-31T15:16:40.588Z,38.10
2018-07-31T15:19:08.954Z,38.00
2018-07-31T15:21:37.146Z,37.40
2018-07-31T15:24:05.253Z,37.60
2018-07-31T15:26:33.466Z,37.30
2018-07-31T15:29:01.551Z,36.70
2018-07-31T15:31:30.026Z,36.50
2018-07-31T15:33:58.106Z,36.30
2018-07-31T15:36:26.191Z,36.20
2018-07-31T15:38:54.271Z,35.60
2018-07-31T15:41:22.339Z,35.30
2018-07-31T15:43:50.694Z,34.80
2018-07-31T15:46:18.870Z,34.70
2018-07-31T15:48:46.958Z,33.60
2018-07-31T15:51:15.047Z,33.50
2018-07-31T15:53:43.150Z,32.10
2018-07-31T15:56:11.570Z,32.60
2018-07-31T15:58:39.726Z,32.20
2018-07-31T16:01:07.809Z,32.00
2018-07-31T16:03:35.902Z,31.80
2018-07-31T16:06:04.052Z,31.90
2018-07-31T16:08:32.966Z,31.30
2018-07-31T16:11:01.061Z,30.60
2018-07-31T16:13:29.131Z,30.20
2018-07-31T16:15:57.316Z,30.20
2018-07-31T16:18:25.517Z,30.40
2018-07-31T16:20:53.927Z,30.00
2018-07-31T16:23:22.059Z,29.30
2018-07-31T16:25:50.131Z,29.60
2018-07-31T16:28:18.265Z,29.70
2018-07-31T16:30:46.435Z,29.60
2018-07-31T16:33:15.036Z,29.40
2018-07-31T16:35:43.107Z,29.10
2018-07-31T16:38:14.177Z,29.00
2018-07-31T16:40:42.275Z,28.50
2018-07-31T16:43:10.433Z,28.50
2018-07-31T16:45:38.540Z,28.20
2018-07-31T16:48:06.629Z,28.30
2018-07-31T16:50:34.706Z,28.30
2018-07-31T16:53:02.779Z,29.10
2018-07-31T16:55:30.882Z,30.20
2018-07-31T16:57:58.957Z,31.80
2018-07-31T17:00:27.040Z,33.00
2018-07-31T17:02:55.109Z,34.30
2018-07-31T17:05:23.250Z,35.40
2018-07-31T17:07:51.612Z,36.40
2018-07-31T17:10:19.798Z,37.90
2018-07-31T17:12:47.862Z,38.30
2018-07-31T17:15:15.970Z,38.20
2018-07-31T17:17:44.040Z,38.70
2018-07-31T17:20:13.155Z,38.70
2018-07-31T17:22:41.534Z,39.20
2018-07-31T17:25:09.621Z,39.60
2018-07-31T17:27:37.734Z,40.50
2018-07-31T17:30:05.830Z,40.70
2018-07-31T17:32:33.957Z,40.90
2018-07-31T17:35:02.337Z,41.10
2018-07-31T17:37:30.416Z,41.50
2018-07-31T17:39:58.618Z,42.10
2018-07-31T17:42:26.701Z,43.00
2018-07-31T17:44:55.266Z,43.60
2018-07-31T17:47:23.719Z,44.10
2018-07-31T17:49:51.806Z,44.50
2018-07-31T17:52:19.933Z,45.00
2018-07-31T17:54:48.006Z,45.60
2018-07-31T17:57:16.088Z,45.70
2018-07-31T17:59:45.107Z,46.10
2018-07-31T18:02:13.257Z,46.30
2018-07-31T18:04:41.359Z,46.30
2018-07-31T18:07:09.448Z,46.30
2018-07-31T18:09:37.573Z,46.70
2018-07-31T18:12:05.680Z,47.00
2018-07-31T18:14:33.835Z,47.40
2018-07-31T18:17:01.908Z,47.60
2018-07-31T18:19:30.111Z,47.90
2018-07-31T18:21:58.991Z,48.30
2018-07-31T18:24:27.430Z,48.60
2018-07-31T18:26:55.893Z,48.90
2018-07-31T18:29:24.060Z,49.30
2018-07-31T18:31:52.219Z,49.30
2018-07-31T18:34:20.312Z,49.50
2018-07-31T18:36:48.979Z,50.40
2018-07-31T18:39:17.067Z,50.00
2018-07-31T18:41:45.181Z,50.30
2018-07-31T18:44:13.258Z,50.40
2018-07-31T18:46:41.367Z,50.60
2018-07-31T18:49:09.810Z,50.70
2018-07-31T18:51:47.753Z,51.00
2018-07-31T18:54:15.891Z,50.80
2018-07-31T18:56:45.331Z,50.90
2018-07-31T18:59:16.665Z,51.00
2018-07-31T19:01:45.142Z,50.80
2018-07-31T19:04:13.159Z,50.80
2018-07-31T19:06:41.286Z,50.80
2018-07-31T19:09:20.098Z,50.90
2018-07-31T19:11:49.849Z,51.10
2018-07-31T19:14:17.918Z,51.20
2018-07-31T19:16:46.010Z,51.20
2018-07-31T19:19:14.114Z,51.00
2018-07-31T19:21:42.206Z,51.10
2018-07-31T19:24:10.627Z,51.20
2018-07-31T19:26:38.724Z,51.20
2018-07-31T19:29:06.904Z,51.30
2018-07-31T19:31:34.978Z,51.70
2018-07-31T19:34:03.117Z,51.40
2018-07-31T19:36:31.490Z,51.50
2018-07-31T19:38:59.585Z,51.50
2018-07-31T19:41:27.689Z,51.40
2018-07-31T19:43:55.790Z,51.60
2018-07-31T19:46:23.940Z,51.70
2018-07-31T19:48:52.294Z,51.80
2018-07-31T19:51:20.429Z,52.00
2018-07-31T19:53:48.519Z,52.20
2018-07-31T19:56:16.608Z,52.30
2018-07-31T20:01:12.624Z,52.60
2018-07-31T20:03:40.695Z,52.60
2018-07-31T20:06:08.784Z,52.60
2018-07-31T20:08:36.912Z,53.10
2018-07-31T20:11:05.037Z,53.10
2018-07-31T20:13:33.481Z,53.10
2018-07-31T20:16:01.599Z,53.20
2018-07-31T20:18:29.678Z,53.40
2018-07-31T20:20:57.831Z,53.60
2018-07-31T20:23:25.867Z,53.80
2018-07-31T20:25:54.291Z,54.10
2018-07-31T20:28:22.415Z,54.40
2018-07-31T20:30:50.544Z,54.50
2018-07-31T20:33:18.650Z,54.60
2018-07-31T20:35:46.726Z,55.50
2018-07-31T20:38:15.114Z,55.20
2018-07-31T20:40:43.203Z,55.80
2018-07-31T20:43:11.315Z,55.90
2018-07-31T20:45:39.385Z,56.70
2018-07-31T20:48:07.733Z,56.60
2018-07-31T20:50:36.399Z,56.80
2018-07-31T20:53:04.551Z,56.90
2018-07-31T20:55:32.736Z,57.00
2018-07-31T20:58:01.047Z,57.10
2018-07-31T21:00:29.151Z,57.40
2018-07-31T21:02:57.575Z,57.70
2018-07-31T21:05:25.678Z,57.90
2018-07-31T21:07:53.946Z,58.00
2018-07-31T21:10:22.091Z,58.40
2018-07-31T21:12:50.251Z,58.70
2018-07-31T21:15:18.333Z,59.00
2018-07-31T21:17:46.485Z,59.80
2018-07-31T21:20:14.554Z,59.70
2018-07-31T21:22:42.688Z,59.80
2018-07-31T21:25:10.771Z,60.10
2018-07-31T21:27:38.905Z,60.50
2018-07-31T21:30:07.010Z,60.60
2018-07-31T21:32:35.074Z,61.00
2018-07-31T21:35:03.150Z,61.40
2018-07-31T21:37:31.248Z,61.60
2018-07-31T21:39:59.365Z,62.50
2018-07-31T21:42:27.627Z,62.00
2018-07-31T21:44:55.710Z,62.20
2018-07-31T21:47:23.814Z,62.40
2018-07-31T21:49:51.890Z,62.50
2018-07-31T21:52:20.198Z,62.70
2018-07-31T21:54:48.294Z,63.50
2018-07-31T21:57:16.615Z,63.30
2018-07-31T21:59:44.756Z,63.40
2018-07-31T22:02:12.759Z,63.70
2018-07-31T22:04:40.876Z,64.80
2018-07-31T22:07:08.982Z,64.40
2018-07-31T22:09:42.318Z,64.80
2018-07-31T22:12:10.575Z,65.10
2018-07-31T22:14:38.883Z,65.20
2018-07-31T22:17:07.350Z,65.30
2018-07-31T22:19:35.515Z,65.40
2018-07-31T22:22:03.781Z,66.30
2018-07-31T22:24:32.215Z,65.90
2018-07-31T22:27:00.300Z,65.90
2018-07-31T22:29:28.517Z,66.00
2018-07-31T22:31:56.678Z,67.10
2018-07-31T22:34:24.750Z,67.10
2018-07-31T22:36:52.842Z,67.20
2018-07-31T22:39:21.556Z,67.20
2018-07-31T22:41:49.643Z,67.40
2018-07-31T22:44:17.742Z,67.70
2018-07-31T22:46:45.819Z,68.10
2018-07-31T22:49:13.890Z,68.70
2018-07-31T22:51:42.005Z,69.30
2018-07-31T22:54:10.071Z,69.60
2018-07-31T22:56:38.142Z,69.80
2018-07-31T22:59:06.395Z,70.50
2018-07-31T23:01:34.782Z,70.70
2018-07-31T23:04:02.843Z,69.90
2018-07-31T23:06:30.914Z,70.00
2018-07-31T23:08:59.064Z,70.90
2018-07-31T23:11:27.143Z,71.00
2018-07-31T23:13:55.234Z,71.20
2018-07-31T23:16:23.384Z,71.40
2018-07-31T23:18:51.475Z,71.30
2018-07-31T23:21:19.612Z,71.20
2018-07-31T23:23:47.674Z,71.30
2018-07-31T23:26:15.767Z,71.50
2018-07-31T23:28:43.851Z,71.80
2018-07-31T23:31:11.935Z,72.10
2018-07-31T23:33:40.010Z,72.40
2018-07-31T23:36:08.082Z,72.60
2018-07-31T23:38:36.148Z,72.70
2018-07-31T23:41:04.296Z,72.70
2018-07-31T23:43:32.483Z,72.70
2018-07-31T23:46:00.635Z,72.70
2018-07-31T23:48:28.727Z,72.80
2018-07-31T23:50:56.800Z,73.90
2018-07-31T23:53:24.872Z,73.90
2018-07-31T23:55:52.932Z,74.00
2018-07-31T23:58:21.066Z,74.10
